»·PEaware :: N946S L37-KIWA

N946S :: L37-KIWA

FLIGHT INFORMATION

Flight Status: Arrived
Operator: Privately registered:
United States
More flights under this callsign
Pilot: Ethan S. (29221)
Aircraft: SOCATA TBM-900
(TBM9)
More flights by this aircraft type
Origin: L37 Grand Canyon Caverns
United States
Destination: KIWA Williams Gateway
United States
More flights between these airports :: More routes between these airports
Route: HOMRR PEAKS
File this flight plan on PilotEdge
Remarks:
Altitude:
(Current/Filed)
17,500ft
Speed:
(Current/Filed)
270kts
Departed: 06-Oct-20 09:54 AM
Arrived: 06-Oct-20 10:46 AM
Distance/Time
Traveled:
154nm/0:51
Distance/Time
To Go:
Arrived

Flight Plot

Page will automatically refresh every two minutes.

Flight plan parsing failed; only flown route is shown


Map Options




Map Legend


Flown Route
Filed Route
Departure Airport
Arrival Airport
Navaid (VOR, NDB)
Fix

Horizontal Profiles

Position Reports

Time Latitude Longitude Heading Altitude Ground
Speed
06-Oct-20 09:52 35.529998 -113.239736 330 5394ft 0kts
06-Oct-20 09:53 35.524459 -113.254051 230 5553ft 123kts
06-Oct-20 09:54 35.491072 -113.237008 135 8000ft 145kts
06-Oct-20 09:55 35.461971 -113.203413 136 10772ft 142kts
06-Oct-20 09:56 35.432332 -113.168899 137 13051ft 149kts
06-Oct-20 09:57 35.401124 -113.132513 137 15172ft 154kts
06-Oct-20 09:58 35.368431 -113.094391 137 17212ft 159kts
06-Oct-20 09:59 35.328113 -113.047367 136 17603ft 227kts
06-Oct-20 10:00 35.275993 -112.986710 136 17566ft 260kts
06-Oct-20 10:01 35.219767 -112.921485 136 17555ft 265kts
06-Oct-20 10:02 35.162820 -112.855544 136 17559ft 267kts
06-Oct-20 10:03 35.106128 -112.790020 136 17545ft 268kts
06-Oct-20 10:04 35.049575 -112.724780 136 17510ft 268kts
06-Oct-20 10:05 34.993019 -112.659674 136 17498ft 268kts
06-Oct-20 10:06 34.936739 -112.595011 136 17498ft 268kts
06-Oct-20 10:07 34.880213 -112.530194 136 17500ft 268kts
06-Oct-20 10:08 34.823732 -112.465554 136 17499ft 269kts
06-Oct-20 10:09 34.767588 -112.401428 136 17499ft 269kts
06-Oct-20 10:10 34.710939 -112.336854 136 17500ft 269kts
06-Oct-20 10:11 34.654078 -112.272162 136 17499ft 269kts
06-Oct-20 10:12 34.596941 -112.207286 136 17500ft 272kts
06-Oct-20 10:13 34.538896 -112.141507 136 17500ft 275kts
06-Oct-20 10:14 34.480810 -112.075816 136 17500ft 275kts
06-Oct-20 10:15 34.422941 -112.010489 137 17497ft 274kts
06-Oct-20 10:17 34.364987 -111.945222 137 17497ft 273kts
06-Oct-20 10:18 34.307881 -111.881021 137 17503ft 273kts
06-Oct-20 10:19 34.251014 -111.817216 137 17513ft 273kts
06-Oct-20 10:20 34.192769 -111.751975 137 16508ft 287kts
06-Oct-20 10:21 34.131989 -111.684041 137 15182ft 289kts
06-Oct-20 10:22 34.069777 -111.614659 137 13831ft 288kts
06-Oct-20 10:23 34.007909 -111.545807 137 12491ft 287kts
06-Oct-20 10:24 33.947351 -111.478587 137 11177ft 276kts
06-Oct-20 10:25 33.890382 -111.415444 136 9938ft 256kts
06-Oct-20 10:26 33.819525 -111.406504 179 8769ft 253kts
06-Oct-20 10:27 33.747239 -111.408858 179 7629ft 253kts
06-Oct-20 10:28 33.733887 -111.409297 179 7417ft 253kts
06-Oct-20 10:29 33.733887 -111.409297 179 7417ft 253kts
06-Oct-20 10:30 33.733887 -111.409297 179 7417ft 253kts
06-Oct-20 10:31 33.733887 -111.409297 179 7417ft 253kts
06-Oct-20 10:32 33.733887 -111.409297 179 7417ft 253kts
06-Oct-20 10:32 33.733887 -111.409297 179 7417ft 253kts
06-Oct-20 10:34 33.733887 -111.409297 179 7417ft 253kts
06-Oct-20 10:35 33.733887 -111.409297 179 7417ft 253kts
06-Oct-20 10:35 33.684886 -111.410911 180 6640ft 254kts
06-Oct-20 10:37 33.603810 -111.436044 211 5258ft 255kts
06-Oct-20 10:37 33.551351 -111.475148 210 4490ft 247kts
06-Oct-20 10:38 33.495972 -111.516566 218 4452ft 181kts
06-Oct-20 10:39 33.472093 -111.564100 239 4494ft 161kts
06-Oct-20 10:40 33.441312 -111.605782 225 4491ft 164kts
06-Oct-20 10:41 33.405791 -111.650457 225 4133ft 196kts
06-Oct-20 10:42 33.365473 -111.701237 225 2625ft 201kts
06-Oct-20 10:43 33.338348 -111.697560 129 1896ft 93kts
06-Oct-20 10:44 33.319104 -111.674532 133 1430ft 91kts
06-Oct-20 10:45 33.310878 -111.667383 240 1352ft 10kts
06-Oct-20 10:46 33.309413 -111.668903 89 1351ft 0kts
06-Oct-20 10:47 33.309413 -111.668903 89 1351ft 0kts
06-Oct-20 10:48 33.309413 -111.668903 89 1350ft 0kts
06-Oct-20 10:49 33.309413 -111.668903 89 1350ft 0kts
06-Oct-20 10:50 33.309413 -111.668903 89 1350ft 0kts
06-Oct-20 10:51 33.309413 -111.668903 89 1350ft 0kts

Navigation Log

Ident Type
Flight plan parsing failed, navigation log unavailable